createdAt,value
2022-10-11T00:00:03.445Z,0.00
2022-10-11T00:01:04.004Z,0.00
2022-10-11T00:02:03.756Z,0.00
2022-10-11T00:03:04.061Z,0.00
2022-10-11T00:04:03.535Z,0.00
2022-10-11T00:05:03.645Z,0.00
2022-10-11T00:06:03.984Z,0.00
2022-10-11T00:07:22.744Z,0.00
2022-10-11T00:08:03.204Z,0.00
2022-10-11T00:09:04.238Z,0.00
2022-10-11T00:10:04.045Z,0.00
2022-10-11T00:11:04.335Z,0.00
2022-10-11T00:12:03.475Z,0.00
2022-10-11T00:13:03.918Z,0.00
2022-10-11T00:14:04.186Z,0.00
2022-10-11T00:15:03.518Z,0.00
2022-10-11T00:16:03.888Z,0.00
2022-10-11T00:17:22.608Z,0.00
2022-10-11T00:18:05.414Z,0.00
2022-10-11T00:19:03.624Z,0.00
2022-10-11T00:20:03.948Z,0.00
2022-10-11T00:21:03.071Z,0.00
2022-10-11T00:22:03.037Z,0.00
2022-10-11T00:23:03.327Z,0.00
2022-10-11T00:24:04.110Z,0.00
2022-10-11T00:25:03.129Z,0.00
2022-10-11T00:26:04.288Z,0.00
2022-10-11T00:27:22.534Z,0.00
2022-10-11T00:28:02.439Z,0.00
2022-10-11T00:29:02.719Z,0.00
2022-10-11T00:30:03.379Z,0.00
2022-10-11T00:31:03.131Z,0.00
2022-10-11T00:32:02.425Z,0.00
2022-10-11T00:33:02.668Z,0.00
2022-10-11T00:34:02.401Z,0.00
2022-10-11T00:35:02.646Z,0.00
2022-10-11T00:36:02.902Z,0.00
2022-10-11T00:37:23.364Z,0.00
2022-10-11T00:38:02.427Z,0.00
2022-10-11T00:39:02.661Z,0.00
2022-10-11T00:40:02.403Z,0.00
2022-10-11T00:41:02.130Z,0.00
2022-10-11T00:42:02.370Z,0.00
2022-10-11T00:43:02.113Z,0.00
2022-10-11T00:44:02.351Z,0.00
2022-10-11T00:45:02.595Z,0.00
2022-10-11T00:46:02.716Z,0.00
2022-10-11T00:47:23.582Z,0.00
2022-10-11T00:48:02.379Z,0.00
2022-10-11T00:49:02.114Z,0.00
2022-10-11T00:50:02.371Z,0.00
2022-10-11T00:51:02.525Z,0.00
2022-10-11T00:52:02.346Z,0.00
2022-10-11T00:53:02.098Z,0.00
2022-10-11T00:54:02.323Z,0.00
2022-10-11T00:55:02.065Z,0.00
2022-10-11T00:56:02.788Z,0.00
2022-10-11T00:57:23.554Z,0.00
2022-10-11T00:58:02.345Z,0.00
2022-10-11T00:59:02.089Z,0.00
2022-10-11T01:00:02.356Z,0.00
2022-10-11T01:01:02.133Z,0.00
2022-10-11T01:02:02.318Z,0.00
2022-10-11T01:03:02.042Z,0.00
2022-10-11T01:04:02.305Z,0.00
2022-10-11T01:05:27.549Z,0.00
2022-10-11T01:06:03.707Z,0.00
2022-10-11T01:07:22.069Z,0.00
2022-10-11T01:08:02.288Z,0.00
2022-10-11T01:09:02.038Z,0.00
2022-10-11T01:10:02.272Z,0.00
2022-10-11T01:11:02.006Z,0.00
2022-10-11T01:12:02.248Z,0.00
2022-10-11T01:13:01.986Z,0.00
2022-10-11T01:14:02.232Z,0.00
2022-10-11T01:15:01.957Z,0.00
2022-10-11T01:16:02.681Z,0.00
2022-10-11T01:17:21.978Z,0.00
2022-10-11T01:18:02.216Z,0.00
2022-10-11T01:19:01.959Z,0.00
2022-10-11T01:20:02.218Z,0.00
2022-10-11T01:21:01.951Z,0.00
2022-10-11T01:22:01.684Z,0.00
2022-10-11T01:23:01.929Z,0.00
2022-10-11T01:24:06.001Z,0.00
2022-10-11T01:25:02.915Z,0.00
2022-10-11T01:26:02.160Z,0.00
2022-10-11T01:27:21.899Z,0.00
2022-10-11T01:28:01.629Z,0.00
2022-10-11T01:29:01.873Z,0.00
2022-10-11T01:30:01.635Z,0.00
2022-10-11T01:31:01.855Z,0.00
2022-10-11T01:32:02.097Z,0.00
2022-10-11T01:33:01.841Z,0.00
2022-10-11T01:34:02.082Z,0.00
2022-10-11T01:35:01.821Z,0.00
2022-10-11T01:36:01.961Z,0.00
2022-10-11T01:37:22.592Z,0.00
2022-10-11T01:38:01.668Z,0.00
2022-10-11T01:39:01.910Z,0.00
2022-10-11T01:40:01.668Z,0.00
2022-10-11T01:41:01.893Z,0.00
2022-10-11T01:42:01.626Z,0.00
2022-10-11T01:43:01.872Z,0.00
2022-10-11T01:44:01.634Z,0.00
2022-10-11T01:45:01.863Z,0.00
2022-10-11T01:46:01.897Z,0.00
2022-10-11T01:47:23.407Z,0.00
2022-10-11T01:48:01.692Z,0.00
2022-10-11T01:49:01.923Z,0.00
2022-10-11T01:50:01.695Z,0.00
2022-10-11T01:51:01.421Z,0.00
2022-10-11T01:52:01.667Z,0.00
2022-10-11T01:53:01.399Z,0.00
2022-10-11T01:54:01.637Z,0.00
2022-10-11T01:55:09.660Z,0.00
2022-10-11T01:56:03.051Z,0.00
2022-10-11T01:57:23.356Z,0.00
2022-10-11T01:58:01.636Z,0.00
2022-10-11T01:59:01.376Z,0.00
2022-10-11T02:00:01.616Z,0.00
2022-10-11T02:01:01.946Z,0.00
2022-10-11T02:02:01.598Z,0.00
2022-10-11T02:03:01.343Z,0.00
2022-10-11T02:04:01.575Z,0.00
2022-10-11T02:05:01.358Z,0.00
2022-10-11T02:06:01.868Z,0.00
2022-10-11T02:07:22.082Z,0.00
2022-10-11T02:08:01.691Z,0.00
2022-10-11T02:09:04.486Z,0.00
2022-10-11T02:10:02.722Z,0.00
2022-10-11T02:11:01.477Z,0.00
2022-10-11T02:12:01.261Z,0.00
2022-10-11T02:13:01.517Z,0.00
2022-10-11T02:14:01.303Z,0.00
2022-10-11T02:15:01.578Z,0.00
2022-10-11T02:16:01.375Z,0.00
2022-10-11T02:17:23.078Z,0.00
2022-10-11T02:18:01.405Z,0.00
2022-10-11T02:19:01.684Z,0.00
2022-10-11T02:20:01.457Z,0.00
2022-10-11T02:21:01.255Z,0.00
2022-10-11T02:22:01.525Z,0.00
2022-10-11T02:23:01.294Z,0.00
2022-10-11T02:24:01.575Z,0.00
2022-10-11T02:25:01.356Z,0.00
2022-10-11T02:26:01.323Z,0.00
2022-10-11T02:27:22.875Z,0.00
2022-10-11T02:28:01.225Z,0.00
2022-10-11T02:29:01.507Z,0.00
2022-10-11T02:30:01.256Z,0.00
2022-10-11T02:31:01.546Z,0.00
2022-10-11T02:32:01.273Z,0.00
2022-10-11T02:33:01.069Z,0.00
2022-10-11T02:34:01.351Z,0.00
2022-10-11T02:35:01.087Z,0.00
2022-10-11T02:36:01.726Z,0.00
2022-10-11T02:37:22.158Z,0.00
2022-10-11T02:38:01.427Z,0.00
2022-10-11T02:39:01.163Z,0.00
2022-10-11T02:40:01.402Z,0.00
2022-10-11T02:41:01.162Z,0.00
2022-10-11T02:42:01.391Z,0.00
2022-10-11T02:43:01.135Z,0.00
2022-10-11T02:44:01.372Z,0.00
2022-10-11T02:45:01.114Z,0.00
2022-10-11T02:46:01.717Z,0.00
2022-10-11T02:47:21.643Z,0.00
2022-10-11T02:48:00.943Z,0.00
2022-10-11T02:49:01.180Z,0.00
2022-10-11T02:50:00.913Z,0.00
2022-10-11T02:51:01.154Z,0.00
2022-10-11T02:52:00.905Z,0.00
2022-10-11T02:53:01.148Z,0.00
2022-10-11T02:54:00.881Z,0.00
2022-10-11T02:55:01.114Z,0.00
2022-10-11T02:56:00.866Z,0.00
2022-10-11T02:57:22.667Z,0.00
2022-10-11T02:58:00.956Z,0.00
2022-10-11T02:59:01.197Z,0.00
2022-10-11T03:00:00.935Z,0.00
2022-10-11T03:01:01.193Z,0.00
2022-10-11T03:02:01.007Z,0.00
2022-10-11T03:03:01.178Z,0.00
2022-10-11T03:04:00.925Z,0.00
2022-10-11T03:05:01.169Z,0.00
2022-10-11T03:06:01.188Z,0.00
2022-10-11T03:07:21.247Z,0.00
2022-10-11T03:08:00.938Z,0.00
2022-10-11T03:09:00.681Z,0.00
2022-10-11T03:10:00.932Z,0.00
2022-10-11T03:11:00.666Z,0.00
2022-10-11T03:12:00.903Z,0.00
2022-10-11T03:13:00.643Z,0.00
2022-10-11T03:14:00.876Z,0.00
2022-10-11T03:15:00.612Z,0.00
2022-10-11T03:16:07.288Z,0.00
2022-10-11T03:17:36.244Z,0.00
2022-10-11T03:18:01.903Z,0.00
2022-10-11T03:19:00.637Z,0.00
2022-10-11T03:20:00.881Z,0.00
2022-10-11T03:21:00.633Z,0.00
2022-10-11T03:22:00.858Z,0.00
2022-10-11T03:23:00.610Z,0.00
2022-10-11T03:24:00.848Z,0.00
2022-10-11T03:25:04.121Z,0.00
2022-10-11T03:26:00.820Z,0.00
2022-10-11T03:27:20.670Z,0.00
2022-10-11T03:28:00.850Z,0.00
2022-10-11T03:29:00.591Z,0.00
2022-10-11T03:30:00.845Z,0.00
2022-10-11T03:31:00.569Z,0.00
2022-10-11T03:32:00.809Z,0.00
2022-10-11T03:33:00.551Z,0.00
2022-10-11T03:34:00.788Z,0.00
2022-10-11T03:35:00.538Z,0.00
2022-10-11T03:36:00.781Z,0.00
2022-10-11T03:37:20.547Z,0.00
2022-10-11T03:38:00.783Z,0.00
2022-10-11T03:39:00.522Z,0.00
2022-10-11T03:40:00.763Z,0.00
2022-10-11T03:41:00.501Z,0.00
2022-10-11T03:42:00.763Z,0.00
2022-10-11T03:43:00.493Z,0.00
2022-10-11T03:44:00.743Z,0.00
2022-10-11T03:45:00.483Z,0.00
2022-10-11T03:46:00.732Z,0.00
2022-10-11T03:47:20.493Z,0.00
2022-10-11T03:48:00.726Z,0.00
2022-10-11T03:49:00.463Z,0.00
2022-10-11T03:50:00.728Z,0.00
2022-10-11T03:51:00.458Z,0.00
2022-10-11T03:52:00.703Z,0.00
2022-10-11T03:53:00.443Z,0.00
2022-10-11T03:54:00.699Z,0.00
2022-10-11T03:55:00.445Z,0.00
2022-10-11T03:56:04.612Z,0.00
2022-10-11T03:57:21.464Z,0.00
2022-10-11T03:58:00.207Z,0.00
2022-10-11T03:59:00.444Z,0.00
2022-10-11T04:00:00.214Z,0.00
2022-10-11T04:01:00.443Z,0.00
2022-10-11T04:02:00.286Z,0.00
2022-10-11T04:03:00.437Z,0.00
2022-10-11T04:04:00.197Z,0.00
2022-10-11T04:05:00.451Z,0.00
2022-10-11T04:06:00.210Z,0.00
2022-10-11T04:07:20.455Z,0.00
2022-10-11T04:08:00.195Z,0.00
2022-10-11T04:09:00.468Z,0.00
2022-10-11T04:10:00.235Z,0.00
2022-10-11T04:11:00.464Z,0.00
2022-10-11T04:12:00.218Z,0.00
2022-10-11T04:13:00.464Z,0.00
2022-10-11T04:14:00.196Z,0.00
2022-10-11T04:15:00.450Z,0.00
2022-10-11T04:16:00.208Z,0.00
2022-10-11T04:17:20.477Z,0.00
2022-10-11T04:18:00.200Z,0.00
2022-10-11T04:19:00.428Z,0.00
2022-10-11T04:20:00.190Z,0.00
2022-10-11T04:21:00.431Z,0.00
2022-10-11T04:22:00.173Z,0.00
2022-10-11T04:23:00.398Z,0.00
2022-10-11T04:24:00.150Z,0.00
2022-10-11T04:25:00.389Z,0.00
2022-10-11T04:26:00.138Z,0.00
2022-10-11T04:27:20.408Z,0.00
2022-10-11T04:28:00.134Z,0.00
2022-10-11T04:29:00.467Z,0.00
2022-10-11T04:30:00.204Z,0.00
2022-10-11T04:30:59.951Z,0.00
2022-10-11T04:32:00.268Z,0.00
2022-10-11T04:32:59.947Z,0.00
2022-10-11T04:34:00.198Z,0.00
2022-10-11T04:34:59.952Z,0.00
2022-10-11T04:36:00.322Z,0.00
2022-10-11T04:37:19.977Z,0.00
2022-10-11T04:38:00.209Z,0.00
2022-10-11T04:38:59.961Z,0.00
2022-10-11T04:40:00.202Z,0.00
2022-10-11T04:40:59.943Z,0.00
2022-10-11T04:42:00.183Z,0.00
2022-10-11T04:43:00.029Z,0.00
2022-10-11T04:44:00.179Z,0.00
2022-10-11T04:44:59.960Z,0.00
2022-10-11T04:46:00.191Z,0.00
2022-10-11T04:47:19.957Z,0.00
2022-10-11T04:47:59.724Z,0.00
2022-10-11T04:48:59.956Z,0.00
2022-10-11T04:49:59.881Z,0.00
2022-10-11T04:51:00.033Z,0.00
2022-10-11T04:51:59.781Z,0.00
2022-10-11T04:53:00.014Z,0.00
2022-10-11T04:53:59.794Z,0.00
2022-10-11T04:55:00.023Z,0.00
2022-10-11T04:55:59.763Z,0.00
2022-10-11T04:57:20.041Z,0.00
2022-10-11T04:57:59.752Z,0.00
2022-10-11T04:59:00.027Z,0.00
2022-10-11T04:59:59.757Z,0.00
2022-10-11T05:00:59.996Z,0.00
2022-10-11T05:01:59.788Z,0.00
2022-10-11T05:03:00.715Z,0.00
2022-10-11T05:04:01.315Z,0.00
2022-10-11T05:05:01.156Z,0.00
2022-10-11T05:06:05.160Z,0.00
2022-10-11T05:07:20.810Z,0.00
2022-10-11T05:08:00.227Z,0.00
2022-10-11T05:09:00.016Z,0.00
2022-10-11T05:10:01.218Z,0.00
2022-10-11T05:11:00.511Z,0.00
2022-10-11T05:12:00.799Z,0.00
2022-10-11T05:13:00.567Z,0.00
2022-10-11T05:14:00.855Z,0.00
2022-10-11T05:15:00.219Z,0.00
2022-10-11T05:16:00.158Z,1.00
2022-10-11T05:17:19.800Z,1.00
2022-10-11T05:18:01.054Z,1.00
2022-10-11T05:19:01.342Z,1.00
2022-10-11T05:20:01.168Z,1.00
2022-10-11T05:21:00.231Z,1.00
2022-10-11T05:21:59.861Z,0.00
2022-10-11T05:23:00.656Z,2.00
2022-10-11T05:23:59.498Z,2.00
2022-10-11T05:25:00.708Z,2.00
2022-10-11T05:26:00.218Z,0.00
2022-10-11T05:27:19.812Z,4.00
2022-10-11T05:28:01.044Z,2.00
2022-10-11T05:29:00.332Z,1.00
2022-10-11T05:30:01.064Z,1.00
2022-10-11T05:31:00.886Z,5.00
2022-10-11T05:32:01.170Z,3.00
2022-10-11T05:32:58.902Z,3.00
2022-10-11T05:34:00.205Z,4.00
2022-10-11T05:35:01.019Z,5.00
2022-10-11T05:35:59.411Z,5.00
2022-10-11T05:37:19.654Z,10.00
2022-10-11T05:38:00.861Z,11.00
2022-10-11T05:39:00.380Z,13.00
2022-10-11T05:40:00.989Z,16.00
2022-10-11T05:41:00.269Z,18.00
2022-10-11T05:42:01.047Z,20.00
2022-10-11T05:43:00.322Z,24.00
2022-10-11T05:44:01.105Z,26.00
2022-10-11T05:45:00.239Z,29.00
2022-10-11T05:45:59.946Z,32.00
2022-10-11T05:47:19.503Z,36.00
2022-10-11T05:48:00.706Z,38.00
2022-10-11T05:48:59.607Z,42.00
2022-10-11T05:50:00.283Z,50.00
2022-10-11T05:51:00.164Z,51.00
2022-10-11T05:52:00.977Z,59.00
2022-10-11T05:52:59.371Z,77.00
2022-10-11T05:53:59.141Z,88.00
2022-10-11T05:55:00.051Z,115.00
2022-10-11T05:55:59.526Z,111.00
2022-10-11T05:57:19.484Z,132.00
2022-10-11T05:58:00.682Z,146.00
2022-10-11T05:59:02.541Z,159.00
2022-10-11T05:59:59.272Z,174.00
2022-10-11T06:00:59.086Z,185.00
2022-10-11T06:01:59.263Z,198.00
2022-10-11T06:02:58.994Z,205.00
2022-10-11T06:03:59.240Z,231.00
2022-10-11T06:04:58.975Z,251.00
2022-10-11T06:05:58.416Z,266.00
2022-10-11T06:07:19.189Z,291.00
2022-10-11T06:07:58.913Z,287.00
2022-10-11T06:08:58.396Z,317.00
2022-10-11T06:09:59.125Z,343.00
2022-10-11T06:10:58.869Z,354.00
2022-10-11T06:11:58.369Z,381.00
2022-10-11T06:12:58.388Z,397.00
2022-10-11T06:13:59.147Z,425.00
2022-10-11T06:14:58.887Z,453.00
2022-10-11T06:15:59.140Z,479.00
2022-10-11T06:17:20.426Z,506.00
2022-10-11T06:17:59.224Z,518.00
2022-10-11T06:18:58.962Z,547.00
2022-10-11T06:19:59.206Z,571.00
2022-10-11T06:20:58.938Z,596.00
2022-10-11T06:21:59.217Z,634.00
2022-10-11T06:22:58.939Z,675.00
2022-10-11T06:24:01.516Z,698.00
2022-10-11T06:24:58.946Z,734.00
2022-10-11T06:25:59.187Z,741.00
2022-10-11T06:27:20.473Z,764.00
2022-10-11T06:27:58.769Z,774.00
2022-10-11T06:28:59.120Z,791.00
2022-10-11T06:29:58.740Z,809.00
2022-10-11T06:30:58.982Z,873.00
2022-10-11T06:31:58.720Z,914.00
2022-10-11T06:33:03.789Z,999.00
2022-10-11T06:33:59.705Z,1158.00
2022-10-11T06:34:58.947Z,1231.00
2022-10-11T06:35:58.694Z,1069.00
2022-10-11T06:37:19.811Z,882.00
2022-10-11T06:37:58.737Z,979.00
2022-10-11T06:38:58.972Z,1067.00
2022-10-11T06:39:58.693Z,1095.00
2022-10-11T06:40:58.939Z,1085.00
2022-10-11T06:41:58.673Z,1117.00
2022-10-11T06:42:58.934Z,1149.00
2022-10-11T06:43:58.651Z,1191.00
2022-10-11T06:44:58.894Z,1207.00
2022-10-11T06:45:58.629Z,1245.00
2022-10-11T06:47:20.371Z,1286.00
2022-10-11T06:47:58.683Z,1304.00
2022-10-11T06:48:58.930Z,1308.00
2022-10-11T06:49:58.670Z,1305.00
2022-10-11T06:51:00.501Z,1279.00
2022-10-11T06:51:58.742Z,1271.00
2022-10-11T06:52:58.475Z,1261.00
2022-10-11T06:53:58.738Z,1322.00
2022-10-11T06:54:58.960Z,1407.00
2022-10-11T06:55:58.710Z,1462.00
2022-10-11T06:57:20.518Z,1552.00
2022-10-11T06:57:58.809Z,1618.00
2022-10-11T06:58:58.533Z,1798.00
2022-10-11T06:59:58.775Z,1816.00
2022-10-11T07:00:58.540Z,2132.00
2022-10-11T07:01:58.761Z,2365.00
2022-10-11T07:02:58.509Z,2127.00
2022-10-11T07:03:58.752Z,1979.00
2022-10-11T07:04:58.480Z,2036.00
2022-10-11T07:06:02.255Z,1956.00
2022-10-11T07:07:19.314Z,1705.00
2022-10-11T07:07:58.763Z,1728.00
2022-10-11T07:08:58.508Z,1986.00
2022-10-11T07:09:58.751Z,2083.00
2022-10-11T07:10:58.485Z,2038.00
2022-10-11T07:11:58.736Z,2248.00
2022-10-11T07:12:58.486Z,2139.00
2022-10-11T07:13:58.728Z,2019.00
2022-10-11T07:14:58.466Z,1996.00
2022-10-11T07:15:58.715Z,2039.00
2022-10-11T07:17:19.939Z,2036.00
2022-10-11T07:17:58.245Z,2081.00
2022-10-11T07:19:00.956Z,2141.00
2022-10-11T07:19:58.196Z,2210.00
2022-10-11T07:20:58.437Z,2294.00
2022-10-11T07:21:58.192Z,2371.00
2022-10-11T07:22:58.428Z,2225.00
2022-10-11T07:23:58.189Z,2164.00
2022-10-11T07:24:58.433Z,2200.00
2022-10-11T07:25:58.170Z,2196.00
2022-10-11T07:27:19.916Z,2352.00
2022-10-11T07:27:58.189Z,2328.00
2022-10-11T07:28:58.497Z,2176.00
2022-10-11T07:29:58.167Z,2052.00
2022-10-11T07:30:58.409Z,2090.00
2022-10-11T07:31:58.158Z,2070.00
2022-10-11T07:32:58.422Z,2113.00
2022-10-11T07:33:58.149Z,2086.00
2022-10-11T07:34:58.407Z,2126.00
2022-10-11T07:35:58.122Z,2258.00
2022-10-11T07:37:19.871Z,2533.00
2022-10-11T07:37:58.161Z,2630.00
2022-10-11T07:38:58.391Z,2864.00
2022-10-11T07:39:58.135Z,2464.00
2022-10-11T07:40:58.389Z,2408.00
2022-10-11T07:41:58.122Z,2380.00
2022-10-11T07:42:58.385Z,3529.00
2022-10-11T07:43:58.109Z,5011.00
2022-10-11T07:44:58.356Z,2957.00
2022-10-11T07:45:58.117Z,2537.00
2022-10-11T07:47:18.836Z,3274.00
2022-10-11T07:47:58.132Z,4748.00
2022-10-11T07:48:58.376Z,6106.00
2022-10-11T07:49:58.113Z,6329.00
2022-10-11T07:50:58.359Z,5264.00
2022-10-11T07:51:58.116Z,2965.00
2022-10-11T07:52:58.355Z,3262.00
2022-10-11T07:53:58.087Z,3083.00
2022-10-11T07:54:58.341Z,3341.00
2022-10-11T07:55:58.082Z,2789.00
2022-10-11T07:57:19.813Z,3359.00
2022-10-11T07:57:58.107Z,3139.00
2022-10-11T07:58:57.865Z,3435.00
2022-10-11T07:59:58.087Z,2837.00
2022-10-11T08:00:57.905Z,2742.00
2022-10-11T08:01:58.094Z,2880.00
2022-10-11T08:02:57.811Z,2866.00
2022-10-11T08:03:58.061Z,2892.00
2022-10-11T08:04:57.788Z,3301.00
2022-10-11T08:05:58.040Z,3299.00
2022-10-11T08:07:19.277Z,2999.00
2022-10-11T08:07:58.044Z,2927.00
2022-10-11T08:08:57.823Z,2968.00
2022-10-11T08:09:58.064Z,3232.00
2022-10-11T08:10:57.820Z,6007.00
2022-10-11T08:11:58.051Z,7252.00
2022-10-11T08:13:03.376Z,6558.00
2022-10-11T08:13:59.018Z,11223.00
2022-10-11T08:14:57.778Z,8737.00
2022-10-11T08:15:58.006Z,4383.00
2022-10-11T08:17:17.862Z,6033.00
2022-10-11T08:17:58.019Z,14722.00
2022-10-11T08:18:57.788Z,25059.00
2022-10-11T08:19:57.989Z,28027.00
2022-10-11T08:20:57.738Z,30723.00
2022-10-11T08:21:57.990Z,31765.00
2022-10-11T08:22:57.729Z,34407.00
2022-10-11T08:23:57.991Z,33235.00
2022-10-11T08:24:57.731Z,32462.00
2022-10-11T08:25:57.950Z,36162.00
2022-10-11T08:27:18.419Z,35354.00
2022-10-11T08:27:57.965Z,39933.00
2022-10-11T08:28:57.779Z,40936.00
2022-10-11T08:29:57.959Z,36139.00
2022-10-11T08:30:57.848Z,40682.00
2022-10-11T08:31:57.940Z,40157.00
2022-10-11T08:32:57.695Z,35930.00
2022-10-11T08:33:58.019Z,37758.00
2022-10-11T08:34:57.673Z,40987.00
2022-10-11T08:35:57.407Z,40473.00
2022-10-11T08:37:18.642Z,36870.00
2022-10-11T08:37:57.410Z,37246.00
2022-10-11T08:39:15.135Z,44751.00
2022-10-11T08:39:57.415Z,45058.00
2022-10-11T08:40:57.652Z,42827.00
2022-10-11T08:41:57.386Z,41947.00
2022-10-11T08:42:57.635Z,40567.00
2022-10-11T08:43:57.364Z,49007.00
2022-10-11T08:45:12.866Z,48182.00
2022-10-11T08:45:58.334Z,40968.00
2022-10-11T08:47:18.388Z,47762.00
2022-10-11T08:49:06.845Z,43250.00
2022-10-11T08:49:17.005Z,44218.00
2022-10-11T08:50:12.184Z,43821.00
2022-10-11T08:51:12.435Z,40597.00
2022-10-11T08:52:13.176Z,46878.00
2022-10-11T08:53:13.407Z,48791.00
2022-10-11T08:54:13.223Z,48607.00
2022-10-11T08:55:13.377Z,42870.00
2022-10-11T08:56:28.679Z,48137.00
2022-10-11T08:57:34.005Z,40272.00
2022-10-11T08:58:12.291Z,37761.00
2022-10-11T08:59:13.473Z,40856.00
2022-10-11T09:04:02.761Z,48186.00
2022-10-11T09:04:07.533Z,48046.00
2022-10-11T09:05:08.257Z,42495.00
2022-10-11T09:13:51.995Z,44291.00
2022-10-11T09:13:56.752Z,43639.00
2022-10-11T09:22:06.504Z,55318.00
2022-10-11T09:22:11.283Z,55828.00
2022-10-11T09:23:33.552Z,48244.00
2022-10-11T09:57:22.920Z,54033.00
2022-10-11T09:57:29.181Z,53985.00
2022-10-11T09:58:29.504Z,41145.00
2022-10-11T10:51:52.831Z,16788.00
2022-10-11T11:42:16.305Z,44742.00
2022-10-11T11:42:22.552Z,40355.00
2022-10-11T11:43:22.836Z,43326.00
2022-10-11T11:44:27.322Z,22407.00
2022-10-11T11:45:23.527Z,30461.00
2022-10-11T11:46:41.847Z,6877.00
2022-10-11T11:47:21.666Z,5339.00
2022-10-11T11:48:23.374Z,6599.00
2022-10-11T11:49:23.138Z,6458.00
2022-10-11T11:50:23.051Z,7285.00
2022-10-11T11:51:25.483Z,14003.00
2022-10-11T11:52:23.047Z,17349.00
2022-10-11T11:53:22.503Z,7714.00
2022-10-11T11:54:22.552Z,9736.00
2022-10-11T11:55:23.400Z,9659.00
2022-10-11T11:56:41.698Z,7702.00
2022-10-11T11:57:23.396Z,6168.00
2022-10-11T11:58:23.180Z,4335.00
2022-10-11T11:59:23.007Z,4212.00
2022-10-11T12:00:22.759Z,4725.00
2022-10-11T12:01:21.626Z,4720.00
2022-10-11T12:02:22.890Z,4418.00
2022-10-11T12:03:23.103Z,3998.00
2022-10-11T12:04:22.014Z,4029.00
2022-10-11T12:05:23.191Z,3926.00
2022-10-11T12:07:04.106Z,3849.00
2022-10-11T12:07:23.316Z,3811.00
2022-10-11T12:08:23.089Z,3818.00
2022-10-11T12:09:22.086Z,3936.00
2022-10-11T12:10:23.112Z,5322.00
2022-10-11T12:11:21.628Z,13905.00
2022-10-11T12:12:23.239Z,9721.00
2022-10-11T12:13:23.033Z,4061.00
2022-10-11T12:14:22.800Z,3742.00
2022-10-11T12:15:23.117Z,3689.00
2022-10-11T12:16:41.429Z,3625.00
2022-10-11T12:17:21.718Z,3599.00
2022-10-11T12:18:21.489Z,3581.00
2022-10-11T12:19:23.158Z,3634.00
2022-10-11T12:20:23.001Z,4481.00
2022-10-11T12:21:22.758Z,4301.00
2022-10-11T12:22:21.997Z,3558.00
2022-10-11T12:23:22.891Z,3539.00
2022-10-11T12:24:21.917Z,3521.00
2022-10-11T12:25:22.931Z,3431.00
2022-10-11T12:26:41.249Z,5841.00
2022-10-11T12:27:22.943Z,7680.00
2022-10-11T12:28:22.055Z,6680.00
2022-10-11T12:29:28.250Z,3349.00
2022-10-11T12:30:23.794Z,3339.00
2022-10-11T12:31:22.625Z,3544.00
2022-10-11T12:32:22.895Z,4626.00
2022-10-11T12:33:22.690Z,5379.00
2022-10-11T12:34:22.979Z,3564.00
2022-10-11T12:35:21.324Z,3725.00
2022-10-11T12:36:41.562Z,3699.00
2022-10-11T12:37:22.781Z,3722.00
2022-10-11T12:38:22.606Z,3448.00
2022-10-11T12:39:22.523Z,3335.00
2022-10-11T12:40:22.730Z,3355.00
2022-10-11T12:41:22.502Z,3454.00
2022-10-11T12:42:21.463Z,3478.00
2022-10-11T12:43:21.168Z,3928.00
2022-10-11T12:44:22.903Z,4558.00
2022-10-11T12:45:22.026Z,5085.00
2022-10-11T12:46:40.991Z,3516.00
2022-10-11T12:47:22.748Z,3161.00
2022-10-11T12:48:22.522Z,3048.00
2022-10-11T12:49:22.810Z,3100.00
2022-10-11T12:50:22.008Z,3096.00
2022-10-11T12:51:22.067Z,3019.00
2022-10-11T12:52:21.397Z,3022.00
2022-10-11T12:53:21.156Z,3195.00
2022-10-11T12:54:27.531Z,2994.00
2022-10-11T12:55:22.902Z,2951.00
2022-10-11T12:56:41.024Z,2940.00
2022-10-11T12:57:21.453Z,2940.00
2022-10-11T12:58:21.192Z,2895.00
2022-10-11T12:59:22.402Z,2858.00
2022-10-11T13:00:22.678Z,2824.00
2022-10-11T13:01:21.056Z,2850.00
2022-10-11T13:02:21.550Z,2866.00
2022-10-11T13:03:21.144Z,2899.00
2022-10-11T13:04:22.353Z,2875.00
2022-10-11T13:05:22.643Z,2877.00
2022-10-11T13:06:40.977Z,2881.00
2022-10-11T13:07:22.686Z,2887.00
2022-10-11T13:08:21.537Z,2872.00
2022-10-11T13:09:20.848Z,2872.00
2022-10-11T13:10:22.612Z,2922.00
2022-10-11T13:11:21.620Z,2994.00
2022-10-11T13:12:20.757Z,3074.00
2022-10-11T13:13:21.124Z,3139.00
2022-10-11T13:14:21.543Z,4490.00
2022-10-11T13:15:22.625Z,4545.00
2022-10-11T13:16:40.946Z,3064.00
2022-10-11T13:17:21.650Z,3142.00
2022-10-11T13:18:22.491Z,3247.00
2022-10-11T13:19:20.840Z,3315.00
2022-10-11T13:20:21.530Z,3391.00
2022-10-11T13:21:23.768Z,3452.00
2022-10-11T13:22:21.609Z,3518.00
2022-10-11T13:23:22.398Z,3532.00
2022-10-11T13:24:22.183Z,3597.00
2022-10-11T13:25:21.954Z,4251.00
2022-10-11T13:26:40.765Z,3584.00
2022-10-11T13:27:21.079Z,3631.00
2022-10-11T13:28:21.894Z,3740.00
2022-10-11T13:29:20.701Z,4133.00
2022-10-11T13:30:21.914Z,3800.00
2022-10-11T13:31:22.196Z,3322.00
2022-10-11T13:32:21.548Z,3291.00
2022-10-11T13:33:22.334Z,3215.00
2022-10-11T13:34:23.514Z,3098.00
2022-10-11T13:35:23.952Z,3156.00
2022-10-11T13:36:40.684Z,2964.00
2022-10-11T13:37:21.535Z,3268.00
2022-10-11T13:38:20.835Z,3337.00
2022-10-11T13:39:22.065Z,3288.00
2022-10-11T13:40:22.325Z,3202.00
2022-10-11T13:41:22.111Z,3218.00
2022-10-11T13:42:21.960Z,3129.00
2022-10-11T13:43:21.535Z,3063.00
2022-10-11T13:44:22.108Z,2966.00
2022-10-11T13:45:21.888Z,2821.00
2022-10-11T13:46:41.903Z,2676.00
2022-10-11T13:47:21.133Z,2629.00
2022-10-11T13:48:21.040Z,2593.00
2022-10-11T13:49:22.014Z,2559.00
2022-10-11T13:50:20.362Z,2560.00
2022-10-11T13:51:22.048Z,2549.00
2022-10-11T13:52:21.813Z,2497.00
2022-10-11T13:53:22.198Z,2477.00
2022-10-11T13:54:20.734Z,2447.00
2022-10-11T13:55:21.738Z,2419.00
2022-10-11T13:56:40.546Z,2389.00
2022-10-11T13:57:20.973Z,2377.00
2022-10-11T13:58:22.055Z,2354.00
2022-10-11T13:59:21.814Z,2335.00
2022-10-11T14:00:21.074Z,2326.00
2022-10-11T14:01:21.973Z,2291.00
2022-10-11T14:02:21.717Z,2273.00
2022-10-11T14:03:22.008Z,2234.00
2022-10-11T14:04:24.092Z,2201.00
2022-10-11T14:05:22.057Z,2176.00
2022-10-11T14:06:40.411Z,2134.00
2022-10-11T14:07:21.085Z,2148.00
2022-10-11T14:08:21.864Z,2189.00
2022-10-11T14:09:21.689Z,2201.00
2022-10-11T14:10:20.604Z,2195.00
2022-10-11T14:11:21.045Z,2172.00
2022-10-11T14:12:21.067Z,2161.00
2022-10-11T14:13:20.417Z,2154.00
2022-10-11T14:14:20.270Z,2119.00
2022-10-11T14:15:21.943Z,2005.00
2022-10-11T14:16:40.261Z,1892.00
2022-10-11T14:17:21.964Z,1845.00
2022-10-11T14:18:21.751Z,2030.00
2022-10-11T14:19:21.569Z,1932.00
2022-10-11T14:20:20.395Z,1980.00
2022-10-11T14:21:21.077Z,2023.00
2022-10-11T14:22:20.477Z,2019.00
2022-10-11T14:23:20.860Z,2050.00
2022-10-11T14:24:20.487Z,2092.00
2022-10-11T14:25:21.707Z,2154.00
2022-10-11T14:26:40.022Z,2228.00
2022-10-11T14:27:20.589Z,2221.00
2022-10-11T14:28:20.127Z,2224.00
2022-10-11T14:29:20.403Z,2209.00
2022-10-11T14:30:26.515Z,2168.00
2022-10-11T14:31:21.278Z,2097.00
2022-10-11T14:32:21.764Z,2051.00
2022-10-11T14:33:20.583Z,2027.00
2022-10-11T14:34:20.575Z,2025.00
2022-10-11T14:35:21.600Z,2019.00
2022-10-11T14:36:39.912Z,2026.00
2022-10-11T14:37:21.608Z,2010.00
2022-10-11T14:38:21.379Z,1961.00
2022-10-11T14:39:21.661Z,1924.00
2022-10-11T14:40:21.328Z,1884.00
2022-10-11T14:41:21.759Z,1842.00
2022-10-11T14:42:20.091Z,1813.00
2022-10-11T14:43:20.792Z,1818.00
2022-10-11T14:44:20.813Z,1825.00
2022-10-11T14:45:21.456Z,1796.00
2022-10-11T14:46:40.170Z,1779.00
2022-10-11T14:47:21.465Z,1793.00
2022-10-11T14:48:43.087Z,1792.00
2022-10-11T14:49:22.509Z,1776.00
2022-10-11T14:50:19.825Z,1706.00
2022-10-11T14:51:21.568Z,1672.00
2022-10-11T14:52:20.587Z,1666.00
2022-10-11T14:53:19.731Z,1663.00
2022-10-11T14:54:20.004Z,1643.00
2022-10-11T14:55:21.166Z,1600.00
2022-10-11T14:56:40.000Z,1543.00
2022-10-11T14:57:20.593Z,1488.00
2022-10-11T14:58:21.508Z,1464.00
2022-10-11T14:59:21.322Z,1440.00
2022-10-11T15:00:20.589Z,1439.00
2022-10-11T15:01:21.467Z,1425.00
2022-10-11T15:02:21.186Z,1428.00
2022-10-11T15:03:20.134Z,1421.00
2022-10-11T15:04:21.391Z,1399.00
2022-10-11T15:05:19.739Z,1369.00